Time;durP1;ratioP1;P1;durP2;ratioP2;P2;SDS_P1;SDS_P2;PMS_P1;PMS_P2;Temp;Humidity;BMP_temperature;BMP_pressure;BME280_temperature;BME280_humidity;BME280_pressure;Samples;Min_cycle;Max_cycle;Signal;HPM_P1;HPM_P2
2023/08/20 00:00:16;;;;;;;12.90;5.38;;;16.10;99.90;;;;;;5077736;28;20468;-54
2023/08/20 00:02:51;;;;;;;11.88;5.55;;;16.10;99.90;;;;;;5062443;28;20399;-54
2023/08/20 00:05:17;;;;;;;9.65;4.38;;;16.10;99.90;;;;;;5061634;28;20051;-55
2023/08/20 00:07:43;;;;;;;7.38;4.18;;;16.00;99.90;;;;;;5064495;28;20044;-54
2023/08/20 00:10:17;;;;;;;9.32;4.60;;;16.00;99.90;;;;;;5069540;28;20100;-56
2023/08/20 00:12:43;;;;;;;14.55;5.93;;;16.00;99.90;;;;;;5070588;28;20036;-55
2023/08/20 00:15:09;;;;;;;10.93;4.95;;;16.00;99.90;;;;;;5049879;28;20040;-55
2023/08/20 00:17:36;;;;;;;13.30;4.80;;;16.00;99.90;;;;;;5063727;28;20047;-55
2023/08/20 00:20:10;;;;;;;11.73;5.10;;;15.90;99.90;;;;;;5078225;28;20060;-55
2023/08/20 00:22:37;;;;;;;9.65;5.65;;;15.90;99.90;;;;;;5078900;28;20049;-56
2023/08/20 00:25:05;;;;;;;9.68;4.80;;;16.00;99.90;;;;;;5088933;28;20043;-55
2023/08/20 00:27:31;;;;;;;13.00;5.68;;;15.90;99.90;;;;;;5071238;28;20054;-54
2023/08/20 00:29:56;;;;;;;12.13;5.97;;;16.00;99.90;;;;;;5088603;28;20028;-54
2023/08/20 00:32:22;;;;;;;10.75;5.65;;;16.00;99.90;;;;;;5066546;28;20229;-54
2023/08/20 00:34:48;;;;;;;11.60;5.65;;;16.00;99.90;;;;;;5071638;28;20036;-56
2023/08/20 00:37:14;;;;;;;12.20;5.28;;;16.00;99.90;;;;;;5057390;28;20109;-53
2023/08/20 00:39:40;;;;;;;10.32;5.35;;;15.90;99.90;;;;;;5053642;28;20044;-54
2023/08/20 00:42:07;;;;;;;9.77;4.95;;;15.90;99.90;;;;;;5075796;28;20039;-55
2023/08/20 00:44:33;;;;;;;7.80;4.50;;;15.90;99.90;;;;;;5084661;28;20032;-53
2023/08/20 00:47:04;;;;;;;10.60;4.55;;;15.90;99.90;;;;;;5073447;28;20042;-54
2023/08/20 00:49:31;;;;;;;10.80;5.28;;;15.90;99.90;;;;;;5075903;28;20048;-54
2023/08/20 00:51:58;;;;;;;8.95;4.20;;;15.90;99.90;;;;;;5087867;28;20055;-53
2023/08/20 00:54:24;;;;;;;9.27;4.93;;;15.80;99.90;;;;;;5071968;28;20036;-53
2023/08/20 00:56:50;;;;;;;9.00;4.43;;;15.80;99.90;;;;;;5087750;28;20047;-55
2023/08/20 00:59:17;;;;;;;10.10;5.47;;;15.80;99.90;;;;;;5052454;28;20051;-55
2023/08/20 01:01:43;;;;;;;9.32;5.13;;;15.80;99.90;;;;;;5085848;28;20039;-54
2023/08/20 01:04:09;;;;;;;9.50;5.35;;;15.80;99.90;;;;;;5072161;28;20082;-55
2023/08/20 01:06:57;;;;;;;9.70;5.40;;;15.80;99.90;;;;;;5080922;28;20072;-55
2023/08/20 01:09:23;;;;;;;13.38;6.00;;;15.80;99.90;;;;;;5054740;28;20097;-53
2023/08/20 01:11:57;;;;;;;9.82;5.38;;;15.80;99.90;;;;;;5088058;28;20036;-55
2023/08/20 01:14:23;;;;;;;12.85;5.55;;;15.80;99.90;;;;;;5064002;28;20040;-54
2023/08/20 01:16:49;;;;;;;11.45;5.75;;;15.80;99.90;;;;;;5069676;28;20788;-56
2023/08/20 01:19:18;;;;;;;9.98;4.28;;;15.80;99.90;;;;;;5034594;28;20089;-56
2023/08/20 01:22:12;;;;;;;12.18;6.43;;;15.80;99.90;;;;;;5089144;28;20036;-54
2023/08/20 01:25:08;;;;;;;10.15;5.32;;;15.80;99.90;;;;;;5069080;28;20071;-55
2023/08/20 01:27:52;;;;;;;9.23;4.50;;;15.80;99.90;;;;;;5069599;28;20080;-53
2023/08/20 01:30:19;;;;;;;8.27;4.90;;;15.70;99.90;;;;;;5084853;28;20092;-52
2023/08/20 01:32:46;;;;;;;9.38;4.80;;;15.70;99.90;;;;;;5066084;28;20040;-56
2023/08/20 01:35:15;;;;;;;12.85;5.13;;;15.70;99.90;;;;;;5056742;28;20716;-56
2023/08/20 01:37:41;;;;;;;11.65;6.10;;;15.70;99.90;;;;;;5088866;28;20043;-54
2023/08/20 01:40:11;;;;;;;10.27;5.65;;;15.70;99.90;;;;;;5052830;28;20430;-54
2023/08/20 01:42:37;;;;;;;11.30;5.55;;;15.70;99.90;;;;;;5066165;28;20073;-53
2023/08/20 01:45:05;;;;;;;10.15;5.47;;;15.70;99.90;;;;;;5029635;28;20113;-52
2023/08/20 01:47:31;;;;;;;8.95;4.22;;;15.70;99.90;;;;;;5068458;28;20036;-56
2023/08/20 01:49:57;;;;;;;10.57;5.22;;;15.70;99.90;;;;;;5063990;28;20036;-53
2023/08/20 01:52:23;;;;;;;10.80;5.57;;;15.70;99.90;;;;;;5084293;28;20028;-56
2023/08/20 01:54:49;;;;;;;9.25;5.40;;;15.70;99.90;;;;;;5086512;28;20036;-54
2023/08/20 01:57:15;;;;;;;14.43;6.30;;;15.70;99.90;;;;;;5058275;28;20040;-52
2023/08/20 01:59:40;;;;;;;12.45;5.95;;;15.70;99.90;;;;;;5068018;28;20040;-53
2023/08/20 02:02:06;;;;;;;13.43;6.25;;;15.70;99.90;;;;;;5086535;28;20027;-55
2023/08/20 02:04:32;;;;;;;9.70;5.20;;;15.60;99.90;;;;;;5067633;28;20039;-54
2023/08/20 02:06:58;;;;;;;12.93;5.30;;;15.60;99.90;;;;;;5089134;28;20043;-53
2023/08/20 02:09:24;;;;;;;10.38;5.30;;;15.60;99.90;;;;;;5062400;28;20044;-55
2023/08/20 02:11:50;;;;;;;12.25;5.30;;;15.60;99.90;;;;;;5085240;28;20040;-55
2023/08/20 02:14:16;;;;;;;8.10;5.10;;;15.60;99.90;;;;;;5052960;28;20040;-52
2023/08/20 02:16:42;;;;;;;8.60;5.15;;;15.60;99.90;;;;;;5053731;28;20066;-53
2023/08/20 02:19:08;;;;;;;8.57;5.25;;;15.60;99.90;;;;;;5062082;28;20487;-53
2023/08/20 02:21:34;;;;;;;14.48;6.00;;;15.60;99.90;;;;;;5065576;28;20089;-52
2023/08/20 02:24:00;;;;;;;10.82;5.72;;;15.60;99.90;;;;;;5083108;28;20042;-55
2023/08/20 02:26:26;;;;;;;9.30;6.15;;;15.70;99.90;;;;;;5080095;28;20146;-55
2023/08/20 02:28:51;;;;;;;10.93;5.32;;;15.70;99.90;;;;;;5042908;28;20490;-55
2023/08/20 02:31:17;;;;;;;12.27;6.03;;;15.70;99.90;;;;;;5072190;28;20175;-52
2023/08/20 02:33:43;;;;;;;12.85;6.63;;;15.70;99.90;;;;;;5064671;28;20112;-52
2023/08/20 02:36:08;;;;;;;11.93;6.07;;;15.70;99.90;;;;;;5065356;28;20123;-53
2023/08/20 02:38:35;;;;;;;8.32;4.82;;;15.70;99.90;;;;;;5090933;28;20071;-52
2023/08/20 02:41:02;;;;;;;14.23;6.30;;;15.70;99.90;;;;;;5086070;28;20048;-53
2023/08/20 02:43:28;;;;;;;10.23;6.00;;;15.70;99.90;;;;;;5063270;28;20062;-54
2023/08/20 02:45:54;;;;;;;15.27;6.53;;;15.70;99.90;;;;;;5051441;28;20089;-55
2023/08/20 02:48:20;;;;;;;14.60;6.63;;;15.70;99.90;;;;;;5060274;28;20056;-52
2023/08/20 02:50:46;;;;;;;8.07;5.15;;;15.70;99.90;;;;;;5039586;28;20402;-52
2023/08/20 02:53:12;;;;;;;14.35;6.65;;;15.70;99.90;;;;;;5091561;28;20032;-52
2023/08/20 02:55:38;;;;;;;12.40;6.32;;;15.70;99.90;;;;;;5082249;28;20051;-54
2023/08/20 02:58:04;;;;;;;13.00;7.35;;;15.70;99.90;;;;;;5066023;28;20036;-53
2023/08/20 03:00:30;;;;;;;11.75;5.93;;;15.70;99.90;;;;;;5050255;28;20036;-52
2023/08/20 03:02:56;;;;;;;12.57;7.28;;;15.60;99.90;;;;;;5055927;28;20576;-52
2023/08/20 03:05:22;;;;;;;11.90;6.65;;;15.60;99.90;;;;;;5061357;28;20051;-55
2023/08/20 03:07:48;;;;;;;15.73;7.25;;;15.60;99.90;;;;;;5092307;28;20044;-56
2023/08/20 03:10:14;;;;;;;12.48;6.63;;;15.60;99.90;;;;;;5088087;28;20096;-54
2023/08/20 03:12:40;;;;;;;14.10;7.15;;;15.60;99.90;;;;;;5052227;28;20273;-54
2023/08/20 03:15:07;;;;;;;15.20;7.40;;;15.60;99.90;;;;;;5046895;28;20036;-55
2023/08/20 03:17:32;;;;;;;15.23;7.50;;;15.60;99.90;;;;;;5062087;28;20277;-55
2023/08/20 03:20:00;;;;;;;11.02;6.93;;;15.60;99.90;;;;;;5063335;28;20135;-53
2023/08/20 03:22:26;;;;;;;14.20;7.45;;;15.60;99.90;;;;;;5049535;28;20047;-53
2023/08/20 03:24:53;;;;;;;15.93;8.05;;;15.60;99.90;;;;;;5081926;28;20162;-56
2023/08/20 03:27:19;;;;;;;11.23;7.00;;;15.60;99.90;;;;;;5067633;28;20126;-53
2023/08/20 03:29:45;;;;;;;11.00;7.32;;;15.60;99.90;;;;;;5089500;28;20067;-53
2023/08/20 03:32:11;;;;;;;15.98;8.27;;;15.60;99.90;;;;;;5056841;28;20491;-52
2023/08/20 03:34:37;;;;;;;13.38;6.97;;;15.60;99.90;;;;;;5082997;28;20033;-53
2023/08/20 03:37:03;;;;;;;11.75;7.40;;;15.50;99.90;;;;;;5070058;28;20072;-53
2023/08/20 03:39:30;;;;;;;11.13;7.40;;;15.50;99.90;;;;;;5057260;28;20036;-53
2023/08/20 03:41:57;;;;;;;13.77;7.75;;;15.50;99.90;;;;;;5064139;28;20111;-54
2023/08/20 03:44:23;;;;;;;13.52;6.43;;;15.50;99.90;;;;;;5059032;28;20040;-55
2023/08/20 03:46:49;;;;;;;12.60;7.47;;;15.50;99.90;;;;;;5074769;28;20149;-55
2023/08/20 03:49:15;;;;;;;11.52;7.55;;;15.50;99.90;;;;;;5049721;28;20578;-55
2023/08/20 03:51:42;;;;;;;10.38;8.00;;;15.50;99.90;;;;;;5066652;28;20048;-53
2023/08/20 03:54:09;;;;;;;15.70;8.10;;;15.50;99.90;;;;;;5081505;28;20036;-52
2023/08/20 03:56:34;;;;;;;14.05;8.02;;;15.50;99.90;;;;;;5062621;28;20465;-55
2023/08/20 03:59:01;;;;;;;11.15;6.30;;;15.50;99.90;;;;;;5063977;28;20028;-54
2023/08/20 04:01:27;;;;;;;11.30;6.75;;;15.40;99.90;;;;;;5074899;28;20032;-53
2023/08/20 04:03:52;;;;;;;11.77;7.15;;;15.50;99.90;;;;;;5068422;28;20041;-55
2023/08/20 04:06:18;;;;;;;12.02;7.72;;;15.40;99.90;;;;;;5075796;28;20208;-52
2023/08/20 04:08:44;;;;;;;14.05;7.75;;;15.40;99.90;;;;;;5056254;28;20051;-52
2023/08/20 04:11:10;;;;;;;10.27;7.03;;;15.40;99.90;;;;;;5075683;28;20063;-53
2023/08/20 04:13:35;;;;;;;9.90;6.55;;;15.40;99.90;;;;;;5087188;28;20087;-55
2023/08/20 04:16:01;;;;;;;11.07;6.90;;;15.40;99.90;;;;;;5068668;28;20043;-54
2023/08/20 04:18:27;;;;;;;12.05;8.10;;;15.40;99.90;;;;;;5067263;28;20048;-53
2023/08/20 04:20:53;;;;;;;13.43;7.88;;;15.40;99.90;;;;;;5085175;28;20039;-52
2023/08/20 04:23:22;;;;;;;14.73;7.63;;;15.40;99.90;;;;;;5090704;28;20040;-55
2023/08/20 04:25:47;;;;;;;11.35;7.47;;;15.40;99.90;;;;;;5067255;28;20044;-56
2023/08/20 04:28:13;;;;;;;12.00;7.47;;;15.40;99.90;;;;;;5072686;28;20050;-54
2023/08/20 04:30:39;;;;;;;14.25;8.10;;;15.40;99.90;;;;;;5066823;28;20147;-52
2023/08/20 04:33:05;;;;;;;14.85;9.13;;;15.40;99.90;;;;;;5088977;28;20119;-54
2023/08/20 04:35:31;;;;;;;13.30;7.13;;;15.40;99.90;;;;;;5067645;28;20106;-55
2023/08/20 04:37:58;;;;;;;10.40;7.18;;;15.40;99.90;;;;;;5070096;28;20040;-53
2023/08/20 04:40:23;;;;;;;12.73;7.70;;;15.50;99.90;;;;;;5064587;28;20126;-52
2023/08/20 04:42:49;;;;;;;13.73;7.38;;;15.50;99.90;;;;;;5071484;28;20038;-54
2023/08/20 04:45:17;;;;;;;8.75;6.18;;;15.50;99.90;;;;;;5067257;28;20076;-53
2023/08/20 04:47:43;;;;;;;9.48;6.35;;;15.50;99.90;;;;;;5090566;28;20047;-53
2023/08/20 04:50:09;;;;;;;10.48;7.75;;;15.50;99.90;;;;;;5062717;28;20494;-52
2023/08/20 04:52:35;;;;;;;11.85;6.68;;;15.50;99.90;;;;;;5085654;28;20032;-54
2023/08/20 04:55:01;;;;;;;13.15;7.70;;;15.50;99.90;;;;;;5088048;28;20436;-53
2023/08/20 04:57:27;;;;;;;19.25;7.68;;;15.50;99.90;;;;;;5088630;28;20039;-52
2023/08/20 04:59:53;;;;;;;16.73;7.15;;;15.60;99.90;;;;;;5065971;28;20070;-54
2023/08/20 05:02:19;;;;;;;12.10;7.40;;;15.60;99.90;;;;;;5066352;28;20069;-53
2023/08/20 05:04:44;;;;;;;11.20;6.93;;;15.60;99.90;;;;;;5057201;28;20048;-53
2023/08/20 05:07:10;;;;;;;15.55;8.13;;;15.70;99.90;;;;;;5089024;28;20036;-56
2023/08/20 05:09:36;;;;;;;11.63;6.43;;;15.70;99.90;;;;;;5078213;28;20079;-54
2023/08/20 05:12:02;;;;;;;13.73;7.63;;;15.70;99.90;;;;;;5064000;28;20089;-55
2023/08/20 05:14:29;;;;;;;15.65;6.82;;;15.70;99.90;;;;;;5043995;28;20438;-53
2023/08/20 05:16:55;;;;;;;13.38;6.05;;;15.80;99.90;;;;;;5070641;28;20052;-58
2023/08/20 05:19:21;;;;;;;14.95;6.45;;;15.80;99.90;;;;;;5072645;28;20032;-51
2023/08/20 05:21:47;;;;;;;11.90;6.50;;;15.90;99.90;;;;;;5087730;28;20119;-54
2023/08/20 05:24:12;;;;;;;9.93;6.32;;;16.00;99.90;;;;;;5069771;28;20118;-56
2023/08/20 05:26:38;;;;;;;14.93;5.88;;;16.00;99.90;;;;;;5062821;28;20048;-53
2023/08/20 05:29:04;;;;;;;15.45;6.20;;;16.10;99.90;;;;;;5054550;28;20044;-56
2023/08/20 05:31:30;;;;;;;13.88;6.88;;;16.10;99.90;;;;;;5066795;28;20044;-53
2023/08/20 05:33:55;;;;;;;12.40;5.78;;;16.20;99.90;;;;;;5086436;28;20119;-54
2023/08/20 05:36:21;;;;;;;13.13;6.40;;;16.20;99.90;;;;;;5050723;28;20507;-54
2023/08/20 05:38:47;;;;;;;14.95;6.45;;;16.20;99.90;;;;;;5070567;28;20061;-54
2023/08/20 05:41:12;;;;;;;13.52;7.22;;;16.30;99.90;;;;;;5065944;28;20410;-57
2023/08/20 05:43:38;;;;;;;13.65;5.95;;;16.30;99.90;;;;;;5070196;28;20742;-51
2023/08/20 05:46:04;;;;;;;13.98;6.25;;;16.40;99.90;;;;;;5067995;28;20036;-52
2023/08/20 05:48:29;;;;;;;12.18;6.15;;;16.50;99.90;;;;;;5079986;28;20475;-54
2023/08/20 05:50:56;;;;;;;16.15;6.57;;;16.60;99.90;;;;;;5082895;28;20044;-55
2023/08/20 05:53:24;;;;;;;13.75;6.63;;;16.60;99.90;;;;;;5082240;28;20487;-54
2023/08/20 05:55:50;;;;;;;14.85;7.03;;;16.70;99.90;;;;;;5043860;28;20395;-54
2023/08/20 05:58:16;;;;;;;15.05;6.82;;;16.70;99.90;;;;;;5036262;28;20028;-54
2023/08/20 06:00:42;;;;;;;11.77;6.60;;;16.80;99.90;;;;;;5073574;28;20044;-56
2023/08/20 06:03:08;;;;;;;20.95;7.43;;;16.90;99.90;;;;;;5065422;28;20036;-55
2023/08/20 06:05:34;;;;;;;14.57;6.68;;;16.90;99.90;;;;;;5067118;28;20036;-53
2023/08/20 06:08:00;;;;;;;13.85;6.97;;;17.00;99.90;;;;;;5063216;28;20040;-52
2023/08/20 06:10:26;;;;;;;16.52;7.18;;;17.10;99.90;;;;;;5069714;28;20036;-53
2023/08/20 06:12:52;;;;;;;14.40;7.38;;;17.10;99.90;;;;;;5053193;28;20039;-56
2023/08/20 06:15:18;;;;;;;15.90;7.93;;;17.20;99.90;;;;;;5049595;28;20509;-53
2023/08/20 06:17:44;;;;;;;14.32;6.80;;;17.30;99.90;;;;;;5064334;28;20127;-56
2023/08/20 06:20:11;;;;;;;16.90;7.25;;;17.40;99.90;;;;;;5075252;28;20115;-53
2023/08/20 06:22:38;;;;;;;14.10;7.25;;;17.50;99.90;;;;;;5081176;28;20391;-53
2023/08/20 06:25:04;;;;;;;18.45;7.13;;;17.60;99.90;;;;;;5067219;28;20035;-53
2023/08/20 06:27:30;;;;;;;18.90;7.85;;;17.70;99.90;;;;;;5064704;28;20044;-52
2023/08/20 06:29:56;;;;;;;15.07;6.75;;;17.70;99.90;;;;;;5081201;28;20055;-52
2023/08/20 06:32:23;;;;;;;19.35;7.30;;;17.90;99.90;;;;;;5065000;28;20432;-51
2023/08/20 06:34:49;;;;;;;15.68;6.63;;;18.00;99.90;;;;;;5068981;28;20032;-55
2023/08/20 06:37:15;;;;;;;16.42;7.50;;;18.10;99.90;;;;;;5058776;28;20545;-54
2023/08/20 06:39:40;;;;;;;16.88;6.97;;;18.20;99.90;;;;;;5042600;28;20538;-54
2023/08/20 06:42:06;;;;;;;17.52;7.70;;;18.20;99.90;;;;;;5071586;28;20567;-55
2023/08/20 06:44:32;;;;;;;13.85;6.38;;;18.30;99.90;;;;;;5065042;28;20040;-55
2023/08/20 06:46:57;;;;;;;16.60;7.53;;;18.40;99.90;;;;;;5092467;28;20153;-53
2023/08/20 06:49:23;;;;;;;15.13;7.00;;;18.50;99.90;;;;;;5068236;28;20525;-51
2023/08/20 06:51:49;;;;;;;16.50;7.07;;;18.60;99.90;;;;;;5063355;28;20170;-49
2023/08/20 06:57:55;;;;;;;17.13;6.68;;;18.80;99.90;;;;;;5086321;28;20518;-52
2023/08/20 07:00:21;;;;;;;19.70;6.82;;;18.90;99.90;;;;;;5060041;28;20036;-52
2023/08/20 07:02:47;;;;;;;17.40;7.50;;;19.00;99.90;;;;;;5060236;28;20062;-54
2023/08/20 07:05:14;;;;;;;18.38;6.78;;;19.10;99.90;;;;;;5081487;28;20392;-53
2023/08/20 07:07:40;;;;;;;18.58;6.30;;;19.20;99.90;;;;;;5086293;28;20081;-52
2023/08/20 07:10:06;;;;;;;17.92;7.18;;;19.30;99.90;;;;;;5083638;28;20028;-53
2023/08/20 07:12:32;;;;;;;17.40;7.00;;;19.40;99.90;;;;;;5049757;28;20039;-50
2023/08/20 07:14:58;;;;;;;24.10;7.05;;;19.40;99.90;;;;;;5048948;28;20047;-51
2023/08/20 07:17:23;;;;;;;18.10;5.80;;;19.50;99.90;;;;;;5060644;28;20550;-51
2023/08/20 07:19:49;;;;;;;16.13;6.25;;;19.60;99.90;;;;;;5067687;28;20042;-49
2023/08/20 07:22:15;;;;;;;13.85;6.90;;;19.70;99.90;;;;;;5047014;28;20040;-49
2023/08/20 07:24:40;;;;;;;18.42;6.30;;;19.80;99.90;;;;;;5080449;28;20510;-49
2023/08/20 07:27:10;;;;;;;17.17;6.43;;;19.90;99.90;;;;;;5049942;28;20055;-55
2023/08/20 07:29:36;;;;;;;24.95;6.85;;;20.00;99.90;;;;;;5065890;28;20048;-53
2023/08/20 07:32:03;;;;;;;16.67;6.47;;;20.10;99.90;;;;;;5035787;28;20089;-53
2023/08/20 07:34:30;;;;;;;20.73;6.93;;;20.20;99.90;;;;;;5066195;28;20521;-53
2023/08/20 07:36:56;;;;;;;15.40;5.93;;;20.30;99.90;;;;;;5055493;28;20471;-52
2023/08/20 07:39:22;;;;;;;17.95;5.95;;;20.40;99.90;;;;;;5082213;28;20028;-53
2023/08/20 07:41:48;;;;;;;18.77;6.32;;;20.50;99.90;;;;;;5065029;28;20414;-50
2023/08/20 07:44:13;;;;;;;19.63;5.53;;;20.60;99.90;;;;;;5064935;28;20041;-50
2023/08/20 07:46:39;;;;;;;14.75;5.28;;;20.60;99.90;;;;;;5048148;28;20098;-51
2023/08/20 07:49:05;;;;;;;14.10;6.10;;;20.70;99.90;;;;;;5092738;28;20039;-51
2023/08/20 07:51:31;;;;;;;18.88;5.63;;;20.80;99.90;;;;;;5067999;28;20518;-52
2023/08/20 07:53:58;;;;;;;13.98;6.07;;;20.90;99.90;;;;;;5053626;28;20083;-52
2023/08/20 07:56:24;;;;;;;23.52;7.20;;;20.90;99.90;;;;;;5065036;28;20415;-51
2023/08/20 07:58:49;;;;;;;14.85;5.78;;;21.00;99.90;;;;;;5046507;28;20057;-53
2023/08/20 08:01:16;;;;;;;16.95;4.85;;;21.10;99.90;;;;;;5066555;28;20040;-50
2023/08/20 08:03:42;;;;;;;15.40;5.10;;;21.30;99.90;;;;;;5063835;28;20035;-50
2023/08/20 08:06:08;;;;;;;19.45;5.07;;;21.20;99.90;;;;;;5044968;28;20049;-50
2023/08/20 08:08:33;;;;;;;15.68;5.25;;;21.40;99.90;;;;;;5060215;28;20039;-51
2023/08/20 08:10:59;;;;;;;17.13;4.88;;;21.40;99.90;;;;;;5045418;28;20075;-52
2023/08/20 08:13:26;;;;;;;15.18;5.50;;;21.30;99.90;;;;;;5046391;28;20491;-51
2023/08/20 08:15:52;;;;;;;14.88;4.65;;;21.30;99.90;;;;;;5041938;28;20510;-55
2023/08/20 08:18:19;;;;;;;18.77;5.68;;;21.20;99.90;;;;;;5062627;28;20072;-52
2023/08/20 08:20:45;;;;;;;13.75;4.90;;;21.20;99.90;;;;;;5072246;28;20058;-51
2023/08/20 08:23:11;;;;;;;14.88;4.72;;;21.40;99.90;;;;;;5049639;28;20043;-53
2023/08/20 08:25:37;;;;;;;21.20;6.20;;;21.60;99.90;;;;;;5059726;28;20044;-56
2023/08/20 08:28:03;;;;;;;15.23;4.20;;;21.70;99.90;;;;;;5078157;28;20469;-53
2023/08/20 08:30:29;;;;;;;12.63;3.80;;;21.70;99.90;;;;;;5062735;28;20079;-51
2023/08/20 08:32:55;;;;;;;15.90;4.07;;;21.60;99.90;;;;;;5081729;28;20079;-53
2023/08/20 08:35:21;;;;;;;12.88;3.97;;;21.50;99.90;;;;;;5079546;28;20047;-53
2023/08/20 08:37:46;;;;;;;12.15;3.58;;;21.50;99.90;;;;;;5064436;28;20563;-55
2023/08/20 08:40:13;;;;;;;11.27;3.50;;;21.70;99.90;;;;;;5075381;28;20046;-54
2023/08/20 08:42:40;;;;;;;15.70;4.85;;;21.80;99.90;;;;;;5077407;28;20374;-51
2023/08/20 08:45:06;;;;;;;17.20;5.30;;;21.80;99.90;;;;;;5062745;28;20484;-54
2023/08/20 08:47:33;;;;;;;12.88;3.58;;;21.60;99.90;;;;;;5069421;28;20040;-55
2023/08/20 08:49:59;;;;;;;11.82;4.00;;;21.60;99.90;;;;;;5058706;28;20048;-53
2023/08/20 08:52:26;;;;;;;15.25;4.82;;;21.70;99.90;;;;;;5071351;28;20487;-51
2023/08/20 08:54:52;;;;;;;14.02;4.60;;;21.80;99.90;;;;;;5069027;28;20043;-52
2023/08/20 08:57:19;;;;;;;10.98;4.35;;;22.00;99.90;;;;;;5042675;28;20052;-53
2023/08/20 08:59:45;;;;;;;13.00;4.05;;;22.10;99.90;;;;;;5047882;28;20532;-56
2023/08/20 09:02:12;;;;;;;10.10;2.97;;;22.30;99.90;;;;;;5067381;28;20040;-55
2023/08/20 09:04:42;;;;;;;11.40;3.97;;;22.30;99.90;;;;;;5082804;28;20040;-52
2023/08/20 09:07:16;;;;;;;12.52;3.67;;;22.50;99.90;;;;;;5085317;28;20040;-56
2023/08/20 09:09:43;;;;;;;9.73;3.35;;;22.80;99.90;;;;;;5066673;28;20040;-55
2023/08/20 09:12:17;;;;;;;11.75;3.13;;;22.90;99.90;;;;;;5070678;28;20048;-55
2023/08/20 09:14:47;;;;;;;;;;;23.10;99.90;;;;;;5067050;28;20039;-55
2023/08/20 09:17:13;;;;;;;10.00;2.60;;;23.00;99.90;;;;;;5063289;28;19920;-57
2023/08/20 09:19:39;;;;;;;11.68;3.53;;;23.10;99.90;;;;;;5081150;28;20036;-54
2023/08/20 09:22:05;;;;;;;14.10;3.60;;;23.20;99.90;;;;;;5092775;28;20043;-54
2023/08/20 09:24:38;;;;;;;9.75;2.78;;;23.30;99.90;;;;;;5059296;28;20051;-54
2023/08/20 09:27:05;;;;;;;9.15;3.25;;;23.40;99.90;;;;;;5062223;28;20055;-55
2023/08/20 09:29:45;;;;;;;12.85;2.83;;;23.50;99.90;;;;;;5059775;28;20051;-55
2023/08/20 09:32:18;;;;;;;9.32;3.00;;;23.80;99.90;;;;;;5074877;28;20040;-53
2023/08/20 09:34:44;;;;;;;13.38;4.18;;;24.00;99.90;;;;;;5073884;28;20131;-56
2023/08/20 09:37:15;;;;;;;15.10;2.85;;;23.50;99.90;;;;;;5066981;28;20551;-56
2023/08/20 09:39:41;;;;;;;14.77;3.20;;;23.50;99.90;;;;;;5075413;28;20092;-55
2023/08/20 09:42:08;;;;;;;11.55;2.95;;;23.50;99.90;;;;;;5054495;28;20398;-54
2023/08/20 09:44:36;;;;;;;11.02;2.90;;;23.70;99.90;;;;;;5047702;28;20666;-54
2023/08/20 09:47:05;;;;;;;9.40;2.83;;;24.00;99.90;;;;;;5071008;28;20067;-56
2023/08/20 09:49:36;;;;;;;13.57;3.30;;;24.20;99.90;;;;;;5067597;28;20572;-55
2023/08/20 09:52:04;;;;;;;10.32;2.63;;;24.10;99.90;;;;;;5081160;28;20032;-56
2023/08/20 09:55:07;;;;;;;9.20;3.00;;;24.10;99.90;;;;;;5090566;28;20050;-54
2023/08/20 09:57:39;;;;;;;8.60;2.42;;;23.70;99.90;;;;;;5069978;28;20865;-57
2023/08/20 10:00:09;;;;;;;13.32;3.05;;;23.50;99.90;;;;;;5042921;28;20044;-54
2023/08/20 10:02:36;;;;;;;9.50;3.28;;;23.70;99.90;;;;;;5064550;28;20051;-56
2023/08/20 10:05:05;;;;;;;9.65;2.15;;;23.70;99.90;;;;;;5050789;28;20074;-55
2023/08/20 10:07:31;;;;;;;10.73;2.92;;;23.70;99.90;;;;;;5064634;28;20044;-56
2023/08/20 10:10:00;;;;;;;11.82;2.05;;;23.80;99.90;;;;;;5091511;28;20487;-52
2023/08/20 10:12:29;;;;;;;11.00;2.67;;;24.00;99.90;;;;;;5065988;28;20033;-55
2023/08/20 10:15:00;;;;;;;12.98;2.83;;;24.30;99.90;;;;;;5064046;28;20499;-54
2023/08/20 10:17:29;;;;;;;13.20;3.13;;;24.20;99.90;;;;;;5078079;28;20032;-56
2023/08/20 10:19:58;;;;;;;6.80;2.42;;;24.00;99.90;;;;;;5059860;28;20072;-54
2023/08/20 10:22:36;;;;;;;6.57;1.90;;;24.20;99.90;;;;;;5055082;28;20036;-56
2023/08/20 10:25:06;;;;;;;10.93;2.10;;;24.50;99.90;;;;;;5046349;28;20121;-53
2023/08/20 10:27:34;;;;;;;7.97;2.40;;;24.60;99.90;;;;;;5095483;28;20046;-53
2023/08/20 10:30:00;;;;;;;9.73;2.67;;;24.80;99.90;;;;;;5058024;28;20097;-51
2023/08/20 10:32:46;;;;;;;10.38;2.35;;;24.90;99.90;;;;;;5064018;28;20120;-53
2023/08/20 10:35:12;;;;;;;14.02;2.47;;;24.90;99.90;;;;;;5045829;28;20035;-53
2023/08/20 10:37:40;;;;;;;5.38;1.70;;;24.90;99.90;;;;;;5063468;28;20123;-55
2023/08/20 10:40:07;;;;;;;5.15;1.85;;;24.90;99.90;;;;;;5062091;28;20050;-55
2023/08/20 10:42:42;;;;;;;6.47;1.92;;;24.70;99.90;;;;;;5063947;28;20039;-54
2023/08/20 10:45:08;;;;;;;8.80;2.05;;;24.60;99.90;;;;;;5089228;28;20027;-51
2023/08/20 10:47:44;;;;;;;6.80;2.22;;;24.80;99.90;;;;;;5082526;28;20035;-54
2023/08/20 10:50:17;;;;;;;7.03;1.90;;;24.80;99.90;;;;;;5078583;28;20163;-52
2023/08/20 10:52:49;;;;;;;6.63;1.90;;;25.00;99.90;;;;;;5059732;28;20075;-52
2023/08/20 10:55:15;;;;;;;8.73;2.05;;;25.20;99.90;;;;;;5089407;28;20078;-57
2023/08/20 10:57:59;;;;;;;4.65;1.60;;;25.30;99.90;;;;;;5083019;28;20489;-51
2023/08/20 11:00:25;;;;;;;6.30;2.10;;;25.60;99.90;;;;;;5066659;28;20082;-53
2023/08/20 11:02:53;;;;;;;6.97;2.10;;;25.80;99.90;;;;;;5067535;28;20051;-54
2023/08/20 11:05:21;;;;;;;7.05;1.90;;;26.00;99.90;;;;;;5055575;28;20111;-55
2023/08/20 11:07:48;;;;;;;8.95;2.72;;;26.00;99.90;;;;;;5057988;22;20490;-55
2023/08/20 11:10:15;;;;;;;7.03;1.90;;;25.60;99.90;;;;;;5049876;28;20040;-53
2023/08/20 11:12:42;;;;;;;7.25;2.25;;;25.20;99.90;;;;;;5061476;28;20047;-53
2023/08/20 11:15:09;;;;;;;10.50;2.63;;;25.20;99.90;;;;;;5065982;28;20079;-53
2023/08/20 11:17:39;;;;;;;7.65;2.03;;;25.10;99.80;;;;;;5067011;28;20080;-52
2023/08/20 11:20:07;;;;;;;7.63;1.88;;;25.10;99.90;;;;;;5072196;28;20385;-55
2023/08/20 11:22:33;;;;;;;5.95;1.70;;;25.30;99.90;;;;;;5063529;28;20109;-54
2023/08/20 11:25:00;;;;;;;4.03;1.45;;;25.50;99.90;;;;;;5039932;28;20436;-54
2023/08/20 11:27:28;;;;;;;7.70;1.70;;;25.70;98.90;;;;;;5065499;28;20103;-55
2023/08/20 11:29:56;;;;;;;7.90;2.00;;;25.60;98.90;;;;;;5068567;28;20047;-54
2023/08/20 11:32:23;;;;;;;6.03;1.48;;;25.60;99.80;;;;;;5066498;28;20058;-55
2023/08/20 11:34:49;;;;;;;5.45;1.20;;;25.80;99.00;;;;;;5049845;28;20150;-54
2023/08/20 11:37:20;;;;;;;7.55;1.50;;;25.70;98.30;;;;;;5046500;28;20518;-54
2023/08/20 11:39:50;;;;;;;6.38;2.13;;;25.50;96.80;;;;;;5048199;28;20051;-55
2023/08/20 11:42:16;;;;;;;6.68;1.90;;;25.60;98.50;;;;;;5045876;28;20562;-55
2023/08/20 11:44:48;;;;;;;12.77;3.33;;;25.90;98.90;;;;;;5067460;28;20119;-54
2023/08/20 11:47:18;;;;;;;8.88;2.30;;;26.10;98.90;;;;;;5033054;28;20044;-55
2023/08/20 11:49:44;;;;;;;7.90;2.00;;;26.20;98.50;;;;;;5044357;28;20083;-55
2023/08/20 11:52:12;;;;;;;11.70;2.22;;;26.40;98.60;;;;;;5031639;28;21936;-54
2023/08/20 11:54:38;;;;;;;6.72;1.77;;;26.30;98.10;;;;;;5050515;28;20109;-55
2023/08/20 11:57:06;;;;;;;6.63;1.88;;;26.20;98.30;;;;;;5063108;28;20403;-54
2023/08/20 11:59:44;;;;;;;9.02;2.10;;;26.10;98.20;;;;;;5072136;28;20448;-53
2023/08/20 12:02:09;;;;;;;7.28;2.03;;;25.90;98.70;;;;;;5029292;28;20042;-56
2023/08/20 12:04:35;;;;;;;6.35;1.85;;;26.00;98.90;;;;;;5033055;28;20467;-52
2023/08/20 12:07:09;;;;;;;7.65;1.65;;;26.30;99.00;;;;;;5045752;28;20098;-55
2023/08/20 12:09:35;;;;;;;6.30;2.03;;;26.40;98.60;;;;;;5046351;28;20098;-55
2023/08/20 12:12:02;;;;;;;4.75;1.50;;;26.40;96.70;;;;;;5051824;28;20502;-55
2023/08/20 12:14:28;;;;;;;7.35;2.00;;;26.00;97.80;;;;;;5044966;28;20549;-54
2023/08/20 12:16:55;;;;;;;6.32;2.20;;;25.70;97.80;;;;;;5051557;28;20076;-55
2023/08/20 12:19:21;;;;;;;8.60;2.20;;;25.10;98.70;;;;;;5039766;28;20135;-55
2023/08/20 12:21:47;;;;;;;6.97;1.83;;;25.20;99.10;;;;;;5055571;28;20044;-55
2023/08/20 12:24:12;;;;;;;10.18;1.98;;;25.10;98.40;;;;;;5047470;28;20045;-55
2023/08/20 12:26:39;;;;;;;6.78;1.80;;;25.00;98.30;;;;;;5058857;28;20043;-53
2023/08/20 12:29:05;;;;;;;8.32;1.90;;;25.20;99.20;;;;;;5066613;28;20072;-56
2023/08/20 12:31:34;;;;;;;6.65;2.15;;;25.40;99.00;;;;;;5054151;28;20076;-56
2023/08/20 12:34:21;;;;;;;6.57;1.55;;;25.50;98.90;;;;;;5079176;28;20044;-55
2023/08/20 12:36:47;;;;;;;5.38;1.80;;;25.40;97.70;;;;;;5055464;28;20729;-54
2023/08/20 12:39:14;;;;;;;6.18;1.55;;;25.20;97.20;;;;;;5035717;28;20179;-55
2023/08/20 12:41:39;;;;;;;8.68;1.73;;;25.30;97.90;;;;;;5045489;28;20102;-56
2023/08/20 12:44:05;;;;;;;8.57;2.10;;;25.30;98.80;;;;;;5053654;28;20044;-56